sensor_id;sensor_type;location;lat;lon;timestamp;temperature;humidity
23591;DHT22;11973;52.098;7.582;2023-03-31T03:47:40;10.70;99.90
23591;DHT22;11973;52.098;7.582;2023-03-31T03:50:06;10.70;99.90
23591;DHT22;11973;52.098;7.582;2023-03-31T03:52:32;10.70;99.90
23591;DHT22;11973;52.098;7.582;2023-03-31T03:55:05;10.70;99.90
23591;DHT22;11973;52.098;7.582;2023-03-31T03:57:31;10.70;99.90
23591;DHT22;11973;52.098;7.582;2023-03-31T03:59:56;10.60;99.90
23591;DHT22;11973;52.098;7.582;2023-03-31T04:02:22;10.70;99.90
23591;DHT22;11973;52.098;7.582;2023-03-31T04:04:48;10.70;99.90
23591;DHT22;11973;52.098;7.582;2023-03-31T04:07:13;10.60;99.90
23591;DHT22;11973;52.098;7.582;2023-03-31T04:09:39;10.80;99.90
23591;DHT22;11973;52.098;7.582;2023-03-31T04:12:05;10.80;99.90
23591;DHT22;11973;52.098;7.582;2023-03-31T04:14:30;10.70;99.90
23591;DHT22;11973;52.098;7.582;2023-03-31T04:16:56;10.70;99.90
23591;DHT22;11973;52.098;7.582;2023-03-31T04:19:23;10.60;99.90
23591;DHT22;11973;52.098;7.582;2023-03-31T04:21:51;10.60;99.90
23591;DHT22;11973;52.098;7.582;2023-03-31T04:24:24;10.60;99.90
23591;DHT22;11973;52.098;7.582;2023-03-31T04:26:56;10.60;99.90
23591;DHT22;11973;52.098;7.582;2023-03-31T04:29:22;10.80;99.90
23591;DHT22;11973;52.098;7.582;2023-03-31T04:31:54;10.60;99.90
23591;DHT22;11973;52.098;7.582;2023-03-31T04:34:25;10.60;99.90
23591;DHT22;11973;52.098;7.582;2023-03-31T04:37:00;10.60;99.90
23591;DHT22;11973;52.098;7.582;2023-03-31T04:39:27;10.60;99.90
23591;DHT22;11973;52.098;7.582;2023-03-31T04:41:56;10.60;99.90
23591;DHT22;11973;52.098;7.582;2023-03-31T04:44:24;10.60;99.90
23591;DHT22;11973;52.098;7.582;2023-03-31T04:46:55;10.50;99.90
23591;DHT22;11973;52.098;7.582;2023-03-31T04:49:21;10.50;99.90
23591;DHT22;11973;52.098;7.582;2023-03-31T04:51:47;10.70;99.90
23591;DHT22;11973;52.098;7.582;2023-03-31T04:54:12;10.50;99.90
23591;DHT22;11973;52.098;7.582;2023-03-31T04:56:38;10.50;99.90
23591;DHT22;11973;52.098;7.582;2023-03-31T04:59:05;10.60;99.90
23591;DHT22;11973;52.098;7.582;2023-03-31T05:01:37;10.50;99.90
23591;DHT22;11973;52.098;7.582;2023-03-31T05:04:05;10.50;99.90
23591;DHT22;11973;52.098;7.582;2023-03-31T05:06:40;10.50;99.90
23591;DHT22;11973;52.098;7.582;2023-03-31T05:09:11;10.50;99.90
23591;DHT22;11973;52.098;7.582;2023-03-31T05:11:36;10.70;99.90
23591;DHT22;11973;52.098;7.582;2023-03-31T05:14:04;10.50;99.90
23591;DHT22;11973;52.098;7.582;2023-03-31T05:16:29;10.50;99.90
23591;DHT22;11973;52.098;7.582;2023-03-31T05:18:55;10.50;99.90
23591;DHT22;11973;52.098;7.582;2023-03-31T05:21:21;10.50;99.90
23591;DHT22;11973;52.098;7.582;2023-03-31T05:23:47;10.50;99.90
23591;DHT22;11973;52.098;7.582;2023-03-31T05:26:13;10.50;99.90
23591;DHT22;11973;52.098;7.582;2023-03-31T05:28:39;10.50;99.90
23591;DHT22;11973;52.098;7.582;2023-03-31T05:31:07;10.50;99.90
23591;DHT22;11973;52.098;7.582;2023-03-31T05:33:33;10.50;99.90
23591;DHT22;11973;52.098;7.582;2023-03-31T05:36:01;10.50;99.90
23591;DHT22;11973;52.098;7.582;2023-03-31T05:38:27;10.50;99.90
23591;DHT22;11973;52.098;7.582;2023-03-31T05:40:54;10.70;99.90
23591;DHT22;11973;52.098;7.582;2023-03-31T05:43:20;10.50;99.90
23591;DHT22;11973;52.098;7.582;2023-03-31T05:45:46;10.50;99.90
23591;DHT22;11973;52.098;7.582;2023-03-31T05:48:12;10.50;99.90
23591;DHT22;11973;52.098;7.582;2023-03-31T05:50:37;10.50;99.90
23591;DHT22;11973;52.098;7.582;2023-03-31T05:53:04;10.60;99.90
23591;DHT22;11973;52.098;7.582;2023-03-31T05:55:31;10.50;99.90
23591;DHT22;11973;52.098;7.582;2023-03-31T05:57:58;10.50;99.90
23591;DHT22;11973;52.098;7.582;2023-03-31T06:00:23;10.50;99.90
23591;DHT22;11973;52.098;7.582;2023-03-31T06:02:49;10.50;99.90
23591;DHT22;11973;52.098;7.582;2023-03-31T06:05:15;10.60;99.90
23591;DHT22;11973;52.098;7.582;2023-03-31T06:07:41;10.50;99.90
23591;DHT22;11973;52.098;7.582;2023-03-31T06:10:07;10.50;99.90
23591;DHT22;11973;52.098;7.582;2023-03-31T06:12:35;10.50;99.90
23591;DHT22;11973;52.098;7.582;2023-03-31T06:15:01;10.50;99.90
23591;DHT22;11973;52.098;7.582;2023-03-31T06:17:27;10.50;99.90
23591;DHT22;11973;52.098;7.582;2023-03-31T06:19:53;10.50;99.90
23591;DHT22;11973;52.098;7.582;2023-03-31T06:22:18;10.60;99.90
23591;DHT22;11973;52.098;7.582;2023-03-31T06:24:44;10.50;99.90
23591;DHT22;11973;52.098;7.582;2023-03-31T06:27:10;10.60;99.90
23591;DHT22;11973;52.098;7.582;2023-03-31T06:29:35;10.60;99.90
23591;DHT22;11973;52.098;7.582;2023-03-31T06:32:01;10.70;99.90
23591;DHT22;11973;52.098;7.582;2023-03-31T06:34:29;10.70;99.90
23591;DHT22;11973;52.098;7.582;2023-03-31T06:36:55;10.80;99.90
23591;DHT22;11973;52.098;7.582;2023-03-31T06:39:21;11.00;99.90
23591;DHT22;11973;52.098;7.582;2023-03-31T06:41:46;11.00;99.90
23591;DHT22;11973;52.098;7.582;2023-03-31T06:44:20;11.10;99.90
23591;DHT22;11973;52.098;7.582;2023-03-31T06:46:48;11.20;99.90
23591;DHT22;11973;52.098;7.582;2023-03-31T06:49:13;11.20;99.90
23591;DHT22;11973;52.098;7.582;2023-03-31T06:51:39;11.40;99.90
23591;DHT22;11973;52.098;7.582;2023-03-31T06:54:05;11.50;99.90
23591;DHT22;11973;52.098;7.582;2023-03-31T06:56:31;11.40;99.90
23591;DHT22;11973;52.098;7.582;2023-03-31T06:58:56;11.40;99.90
23591;DHT22;11973;52.098;7.582;2023-03-31T07:01:22;11.40;99.90
23591;DHT22;11973;52.098;7.582;2023-03-31T07:03:48;11.40;99.90
23591;DHT22;11973;52.098;7.582;2023-03-31T07:06:14;11.50;99.90
23591;DHT22;11973;52.098;7.582;2023-03-31T07:08:40;11.60;99.90
23591;DHT22;11973;52.098;7.582;2023-03-31T07:11:06;11.50;99.90
23591;DHT22;11973;52.098;7.582;2023-03-31T07:13:32;11.50;99.90
23591;DHT22;11973;52.098;7.582;2023-03-31T07:15:58;11.50;99.90
23591;DHT22;11973;52.098;7.582;2023-03-31T07:18:24;11.60;99.90
23591;DHT22;11973;52.098;7.582;2023-03-31T07:20:51;11.50;99.90
23591;DHT22;11973;52.098;7.582;2023-03-31T07:23:17;11.50;99.90
23591;DHT22;11973;52.098;7.582;2023-03-31T07:25:46;11.50;99.90
23591;DHT22;11973;52.098;7.582;2023-03-31T07:28:12;11.40;99.90
23591;DHT22;11973;52.098;7.582;2023-03-31T07:30:39;11.40;99.90
23591;DHT22;11973;52.098;7.582;2023-03-31T07:33:06;11.40;99.90
23591;DHT22;11973;52.098;7.582;2023-03-31T07:35:32;11.40;99.90
23591;DHT22;11973;52.098;7.582;2023-03-31T07:37:58;11.40;99.90
23591;DHT22;11973;52.098;7.582;2023-03-31T07:40:26;11.40;99.90
23591;DHT22;11973;52.098;7.582;2023-03-31T07:42:52;11.40;99.90
23591;DHT22;11973;52.098;7.582;2023-03-31T07:45:20;11.30;99.90
23591;DHT22;11973;52.098;7.582;2023-03-31T07:47:46;11.30;99.90
23591;DHT22;11973;52.098;7.582;2023-03-31T07:50:13;11.30;99.90
23591;DHT22;11973;52.098;7.582;2023-03-31T07:52:39;11.30;99.90
23591;DHT22;11973;52.098;7.582;2023-03-31T07:55:06;11.30;99.90
23591;DHT22;11973;52.098;7.582;2023-03-31T07:57:33;11.30;99.90
23591;DHT22;11973;52.098;7.582;2023-03-31T07:59:59;11.20;99.90
23591;DHT22;11973;52.098;7.582;2023-03-31T08:02:25;11.20;99.90
23591;DHT22;11973;52.098;7.582;2023-03-31T08:04:51;11.20;99.90
23591;DHT22;11973;52.098;7.582;2023-03-31T08:07:16;11.20;99.90
23591;DHT22;11973;52.098;7.582;2023-03-31T08:09:44;11.20;99.90
23591;DHT22;11973;52.098;7.582;2023-03-31T08:12:09;11.20;99.90
23591;DHT22;11973;52.098;7.582;2023-03-31T08:14:35;11.20;99.90
23591;DHT22;11973;52.098;7.582;2023-03-31T08:17:01;11.30;99.90
23591;DHT22;11973;52.098;7.582;2023-03-31T08:19:28;11.30;99.90
23591;DHT22;11973;52.098;7.582;2023-03-31T08:21:54;11.40;99.90
23591;DHT22;11973;52.098;7.582;2023-03-31T08:24:20;11.40;99.90
23591;DHT22;11973;52.098;7.582;2023-03-31T08:26:46;11.40;99.90
23591;DHT22;11973;52.098;7.582;2023-03-31T08:29:12;11.50;99.90
23591;DHT22;11973;52.098;7.582;2023-03-31T08:31:38;11.60;99.90
23591;DHT22;11973;52.098;7.582;2023-03-31T08:34:04;11.60;99.90
23591;DHT22;11973;52.098;7.582;2023-03-31T08:36:30;11.60;99.90
23591;DHT22;11973;52.098;7.582;2023-03-31T08:38:58;11.60;99.90
23591;DHT22;11973;52.098;7.582;2023-03-31T08:43:49;11.60;99.90
23591;DHT22;11973;52.098;7.582;2023-03-31T08:46:17;11.50;99.90
23591;DHT22;11973;52.098;7.582;2023-03-31T08:48:47;11.50;99.90
23591;DHT22;11973;52.098;7.582;2023-03-31T08:51:54;11.50;99.90
23591;DHT22;11973;52.098;7.582;2023-03-31T08:54:42;11.40;99.90
23591;DHT22;11973;52.098;7.582;2023-03-31T08:58:17;11.40;99.90
23591;DHT22;11973;52.098;7.582;2023-03-31T09:00:18;11.40;99.90
23591;DHT22;11973;52.098;7.582;2023-03-31T09:03:08;11.40;99.90
23591;DHT22;11973;52.098;7.582;2023-03-31T09:05:39;11.30;99.90
23591;DHT22;11973;52.098;7.582;2023-03-31T09:08:20;11.30;99.90
23591;DHT22;11973;52.098;7.582;2023-03-31T09:10:54;11.20;99.90
23591;DHT22;11973;52.098;7.582;2023-03-31T09:18:30;11.10;99.90
23591;DHT22;11973;52.098;7.582;2023-03-31T09:21:06;11.10;99.90
23591;DHT22;11973;52.098;7.582;2023-03-31T09:23:38;11.00;99.90
23591;DHT22;11973;52.098;7.582;2023-03-31T09:26:11;11.00;99.90
23591;DHT22;11973;52.098;7.582;2023-03-31T09:28:44;10.90;99.90
23591;DHT22;11973;52.098;7.582;2023-03-31T09:31:17;10.90;99.90
23591;DHT22;11973;52.098;7.582;2023-03-31T09:33:45;10.80;99.90
23591;DHT22;11973;52.098;7.582;2023-03-31T09:36:19;10.80;99.90
23591;DHT22;11973;52.098;7.582;2023-03-31T09:38:48;10.80;99.90
23591;DHT22;11973;52.098;7.582;2023-03-31T09:41:15;10.70;99.90
23591;DHT22;11973;52.098;7.582;2023-03-31T09:43:42;10.70;99.90
23591;DHT22;11973;52.098;7.582;2023-03-31T09:46:20;10.70;99.90
23591;DHT22;11973;52.098;7.582;2023-03-31T09:48:57;10.70;99.90
23591;DHT22;11973;52.098;7.582;2023-03-31T09:51:28;10.70;99.90
23591;DHT22;11973;52.098;7.582;2023-03-31T09:59:17;10.80;99.90
23591;DHT22;11973;52.098;7.582;2023-03-31T10:01:49;10.80;99.90
23591;DHT22;11973;52.098;7.582;2023-03-31T10:04:28;10.80;99.90
23591;DHT22;11973;52.098;7.582;2023-03-31T10:06:55;10.90;99.90
23591;DHT22;11973;52.098;7.582;2023-03-31T10:09:26;11.00;99.90
23591;DHT22;11973;52.098;7.582;2023-03-31T10:12:03;11.00;99.90
23591;DHT22;11973;52.098;7.582;2023-03-31T10:14:40;11.10;99.90
23591;DHT22;11973;52.098;7.582;2023-03-31T10:17:14;11.20;99.90
23591;DHT22;11973;52.098;7.582;2023-03-31T10:19:56;11.30;99.90
23591;DHT22;11973;52.098;7.582;2023-03-31T10:24:49;11.40;99.90
23591;DHT22;11973;52.098;7.582;2023-03-31T10:27:25;11.40;99.90
23591;DHT22;11973;52.098;7.582;2023-03-31T10:29:53;11.40;99.90
23591;DHT22;11973;52.098;7.582;2023-03-31T10:32:28;11.50;99.90
23591;DHT22;11973;52.098;7.582;2023-03-31T10:35:02;11.50;99.90
23591;DHT22;11973;52.098;7.582;2023-03-31T10:37:29;11.60;99.90
23591;DHT22;11973;52.098;7.582;2023-03-31T10:40:12;11.60;99.90
23591;DHT22;11973;52.098;7.582;2023-03-31T10:42:38;11.60;99.90
23591;DHT22;11973;52.098;7.582;2023-03-31T10:45:25;11.60;99.90
23591;DHT22;11973;52.098;7.582;2023-03-31T10:47:57;11.70;99.90
23591;DHT22;11973;52.098;7.582;2023-03-31T10:50:29;11.90;99.90
23591;DHT22;11973;52.098;7.582;2023-03-31T10:53:16;11.80;99.90
23591;DHT22;11973;52.098;7.582;2023-03-31T11:12:26;12.50;99.90
23591;DHT22;11973;52.098;7.582;2023-03-31T11:15:32;12.50;99.90
23591;DHT22;11973;52.098;7.582;2023-03-31T11:23:40;12.30;99.90
23591;DHT22;11973;52.098;7.582;2023-03-31T11:45:16;12.10;99.90
23591;DHT22;11973;52.098;7.582;2023-03-31T11:47:44;12.10;99.90
23591;DHT22;11973;52.098;7.582;2023-03-31T11:50:21;12.10;99.90
23591;DHT22;11973;52.098;7.582;2023-03-31T11:53:10;12.10;99.90
23591;DHT22;11973;52.098;7.582;2023-03-31T11:55:38;12.20;99.90
23591;DHT22;11973;52.098;7.582;2023-03-31T11:58:05;12.40;99.90
23591;DHT22;11973;52.098;7.582;2023-03-31T12:00:52;12.50;99.90
23591;DHT22;11973;52.098;7.582;2023-03-31T12:06:01;13.00;99.90
23591;DHT22;11973;52.098;7.582;2023-03-31T12:08:40;13.10;99.90
23591;DHT22;11973;52.098;7.582;2023-03-31T12:11:37;13.30;99.90
23591;DHT22;11973;52.098;7.582;2023-03-31T12:16:50;13.50;99.90
23591;DHT22;11973;52.098;7.582;2023-03-31T12:19:20;13.60;99.90
23591;DHT22;11973;52.098;7.582;2023-03-31T12:21:59;13.60;99.90
23591;DHT22;11973;52.098;7.582;2023-03-31T12:24:29;13.70;99.90
23591;DHT22;11973;52.098;7.582;2023-03-31T12:27:04;13.80;99.90
23591;DHT22;11973;52.098;7.582;2023-03-31T12:30:11;13.90;99.90
23591;DHT22;11973;52.098;7.582;2023-03-31T12:32:42;14.00;99.90
23591;DHT22;11973;52.098;7.582;2023-03-31T12:40:47;13.70;99.90
23591;DHT22;11973;52.098;7.582;2023-03-31T12:48:59;13.80;99.90
23591;DHT22;11973;52.098;7.582;2023-03-31T12:57:19;14.30;99.90
23591;DHT22;11973;52.098;7.582;2023-03-31T12:59:45;14.60;99.90
23591;DHT22;11973;52.098;7.582;2023-03-31T13:02:29;14.70;99.90
23591;DHT22;11973;52.098;7.582;2023-03-31T13:04:55;14.70;99.90
23591;DHT22;11973;52.098;7.582;2023-03-31T13:09:58;14.80;99.90
23591;DHT22;11973;52.098;7.582;2023-03-31T13:12:25;14.80;99.90
23591;DHT22;11973;52.098;7.582;2023-03-31T13:14:56;14.90;99.90
23591;DHT22;11973;52.098;7.582;2023-03-31T13:17:27;14.90;99.90
23591;DHT22;11973;52.098;7.582;2023-03-31T13:19:55;14.90;99.90
23591;DHT22;11973;52.098;7.582;2023-03-31T13:22:32;14.90;99.90
23591;DHT22;11973;52.098;7.582;2023-03-31T13:28:12;14.90;99.90
23591;DHT22;11973;52.098;7.582;2023-03-31T13:33:10;15.00;99.90
23591;DHT22;11973;52.098;7.582;2023-03-31T13:35:38;15.00;99.90
23591;DHT22;11973;52.098;7.582;2023-03-31T13:38:33;15.10;99.90
23591;DHT22;11973;52.098;7.582;2023-03-31T14:06:58;15.70;99.90
23591;DHT22;11973;52.098;7.582;2023-03-31T14:09:31;15.70;99.90
23591;DHT22;11973;52.098;7.582;2023-03-31T14:11:59;15.70;99.90
23591;DHT22;11973;52.098;7.582;2023-03-31T14:14:25;15.80;99.90
23591;DHT22;11973;52.098;7.582;2023-03-31T14:17:02;15.90;99.90
23591;DHT22;11973;52.098;7.582;2023-03-31T14:35:35;16.30;99.90
23591;DHT22;11973;52.098;7.582;2023-03-31T14:38:17;16.30;99.90
23591;DHT22;11973;52.098;7.582;2023-03-31T14:40:46;16.30;99.90
23591;DHT22;11973;52.098;7.582;2023-03-31T14:43:33;16.20;99.90
23591;DHT22;11973;52.098;7.582;2023-03-31T14:46:04;16.20;99.90
23591;DHT22;11973;52.098;7.582;2023-03-31T14:48:40;16.20;99.90
23591;DHT22;11973;52.098;7.582;2023-03-31T14:51:14;16.20;99.90
23591;DHT22;11973;52.098;7.582;2023-03-31T14:53:40;16.50;99.90
23591;DHT22;11973;52.098;7.582;2023-03-31T14:56:19;16.80;99.90
23591;DHT22;11973;52.098;7.582;2023-03-31T14:58:50;17.40;99.90
23591;DHT22;11973;52.098;7.582;2023-03-31T15:01:28;17.90;99.90
23591;DHT22;11973;52.098;7.582;2023-03-31T15:03:54;18.50;99.90
23591;DHT22;11973;52.098;7.582;2023-03-31T15:06:24;18.80;99.90
23591;DHT22;11973;52.098;7.582;2023-03-31T15:08:54;18.90;99.90
23591;DHT22;11973;52.098;7.582;2023-03-31T15:11:21;18.90;99.90
23591;DHT22;11973;52.098;7.582;2023-03-31T15:13:50;18.70;99.90
23591;DHT22;11973;52.098;7.582;2023-03-31T15:16:35;18.40;99.90
23591;DHT22;11973;52.098;7.582;2023-03-31T15:19:18;18.00;99.90
23591;DHT22;11973;52.098;7.582;2023-03-31T15:21:45;17.70;99.90
23591;DHT22;11973;52.098;7.582;2023-03-31T15:24:12;17.30;99.90
23591;DHT22;11973;52.098;7.582;2023-03-31T15:27:02;17.10;99.90
23591;DHT22;11973;52.098;7.582;2023-03-31T15:32:17;17.00;99.90
23591;DHT22;11973;52.098;7.582;2023-03-31T15:34:48;16.90;99.90
23591;DHT22;11973;52.098;7.582;2023-03-31T15:37:15;16.70;99.90
23591;DHT22;11973;52.098;7.582;2023-03-31T15:39:44;16.60;99.90
23591;DHT22;11973;52.098;7.582;2023-03-31T15:42:10;16.50;99.90
23591;DHT22;11973;52.098;7.582;2023-03-31T15:44:43;16.40;99.90
23591;DHT22;11973;52.098;7.582;2023-03-31T15:47:16;16.20;99.90
23591;DHT22;11973;52.098;7.582;2023-03-31T15:50:15;16.00;99.90
23591;DHT22;11973;52.098;7.582;2023-03-31T15:52:49;15.90;99.90
23591;DHT22;11973;52.098;7.582;2023-03-31T15:55:24;15.90;99.90
23591;DHT22;11973;52.098;7.582;2023-03-31T15:57:52;16.00;99.90
23591;DHT22;11973;52.098;7.582;2023-03-31T16:02:57;16.10;99.90
23591;DHT22;11973;52.098;7.582;2023-03-31T16:07:58;16.10;99.90
23591;DHT22;11973;52.098;7.582;2023-03-31T16:10:24;16.00;99.90
23591;DHT22;11973;52.098;7.582;2023-03-31T16:12:56;15.90;99.90
23591;DHT22;11973;52.098;7.582;2023-03-31T16:15:39;15.80;99.90
23591;DHT22;11973;52.098;7.582;2023-03-31T16:18:15;15.70;99.90
23591;DHT22;11973;52.098;7.582;2023-03-31T16:20:44;15.70;99.90
23591;DHT22;11973;52.098;7.582;2023-03-31T16:23:20;15.70;99.90
23591;DHT22;11973;52.098;7.582;2023-03-31T16:25:48;15.70;99.90
23591;DHT22;11973;52.098;7.582;2023-03-31T16:28:16;15.80;99.90
23591;DHT22;11973;52.098;7.582;2023-03-31T16:30:44;15.80;99.90
23591;DHT22;11973;52.098;7.582;2023-03-31T16:33:15;15.80;99.90
23591;DHT22;11973;52.098;7.582;2023-03-31T16:35:44;15.70;99.90
23591;DHT22;11973;52.098;7.582;2023-03-31T16:38:14;15.70;99.90
23591;DHT22;11973;52.098;7.582;2023-03-31T16:40:45;15.50;99.90
23591;DHT22;11973;52.098;7.582;2023-03-31T16:43:19;15.40;99.90
23591;DHT22;11973;52.098;7.582;2023-03-31T16:45:50;15.20;99.90
23591;DHT22;11973;52.098;7.582;2023-03-31T16:48:18;15.00;99.90
23591;DHT22;11973;52.098;7.582;2023-03-31T16:50:46;14.80;99.90
23591;DHT22;11973;52.098;7.582;2023-03-31T16:53:28;14.70;99.90
23591;DHT22;11973;52.098;7.582;2023-03-31T16:55:54;14.50;99.90
23591;DHT22;11973;52.098;7.582;2023-03-31T16:58:20;14.40;99.90
23591;DHT22;11973;52.098;7.582;2023-03-31T17:00:49;14.30;99.90
23591;DHT22;11973;52.098;7.582;2023-03-31T17:03:15;14.20;99.90
23591;DHT22;11973;52.098;7.582;2023-03-31T17:05:45;14.10;99.90
23591;DHT22;11973;52.098;7.582;2023-03-31T17:08:11;14.00;99.90
23591;DHT22;11973;52.098;7.582;2023-03-31T17:10:38;13.80;99.90
23591;DHT22;11973;52.098;7.582;2023-03-31T17:13:05;13.70;99.90
23591;DHT22;11973;52.098;7.582;2023-03-31T17:15:31;13.60;99.90
23591;DHT22;11973;52.098;7.582;2023-03-31T17:17:57;13.60;99.90
23591;DHT22;11973;52.098;7.582;2023-03-31T17:20:24;13.50;99.90
23591;DHT22;11973;52.098;7.582;2023-03-31T17:22:51;13.40;99.90
23591;DHT22;11973;52.098;7.582;2023-03-31T17:25:17;13.30;99.90
23591;DHT22;11973;52.098;7.582;2023-03-31T17:27:44;13.30;99.90
23591;DHT22;11973;52.098;7.582;2023-03-31T17:30:10;13.20;99.90
23591;DHT22;11973;52.098;7.582;2023-03-31T17:32:48;13.10;99.90
23591;DHT22;11973;52.098;7.582;2023-03-31T17:35:13;13.00;99.90
23591;DHT22;11973;52.098;7.582;2023-03-31T17:37:49;13.00;99.90
23591;DHT22;11973;52.098;7.582;2023-03-31T17:40:21;12.90;99.90
23591;DHT22;11973;52.098;7.582;2023-03-31T17:42:47;12.80;99.90
23591;DHT22;11973;52.098;7.582;2023-03-31T17:45:13;12.80;99.90
23591;DHT22;11973;52.098;7.582;2023-03-31T17:47:39;12.70;99.90
23591;DHT22;11973;52.098;7.582;2023-03-31T17:50:06;12.70;99.90
23591;DHT22;11973;52.098;7.582;2023-03-31T17:52:34;12.70;99.90
23591;DHT22;11973;52.098;7.582;2023-03-31T17:55:01;12.60;99.90
23591;DHT22;11973;52.098;7.582;2023-03-31T17:57:29;12.60;99.90
23591;DHT22;11973;52.098;7.582;2023-03-31T17:59:58;12.50;99.90
23591;DHT22;11973;52.098;7.582;2023-03-31T18:02:25;12.50;99.90
23591;DHT22;11973;52.098;7.582;2023-03-31T18:04:51;12.50;99.90
23591;DHT22;11973;52.098;7.582;2023-03-31T18:07:17;12.50;99.90
23591;DHT22;11973;52.098;7.582;2023-03-31T18:09:43;12.40;99.90
23591;DHT22;11973;52.098;7.582;2023-03-31T18:12:10;12.40;99.90
23591;DHT22;11973;52.098;7.582;2023-03-31T18:14:35;12.40;99.90
23591;DHT22;11973;52.098;7.582;2023-03-31T18:17:01;12.40;99.90
23591;DHT22;11973;52.098;7.582;2023-03-31T18:19:27;12.40;99.90
23591;DHT22;11973;52.098;7.582;2023-03-31T18:21:54;12.30;99.90
23591;DHT22;11973;52.098;7.582;2023-03-31T18:24:20;12.30;99.90
23591;DHT22;11973;52.098;7.582;2023-03-31T18:26:47;12.30;99.90
23591;DHT22;11973;52.098;7.582;2023-03-31T18:29:13;12.20;99.90
23591;DHT22;11973;52.098;7.582;2023-03-31T18:31:39;12.30;99.90
23591;DHT22;11973;52.098;7.582;2023-03-31T18:34:04;12.20;99.90
23591;DHT22;11973;52.098;7.582;2023-03-31T18:36:30;12.30;99.90
23591;DHT22;11973;52.098;7.582;2023-03-31T18:38:56;12.10;99.90
23591;DHT22;11973;52.098;7.582;2023-03-31T18:41:21;12.20;99.90
23591;DHT22;11973;52.098;7.582;2023-03-31T18:43:48;12.10;99.90
23591;DHT22;11973;52.098;7.582;2023-03-31T18:46:17;12.10;99.90
23591;DHT22;11973;52.098;7.582;2023-03-31T18:48:43;12.10;99.90
23591;DHT22;11973;52.098;7.582;2023-03-31T18:51:10;12.00;99.90
23591;DHT22;11973;52.098;7.582;2023-03-31T18:53:36;12.20;99.90
23591;DHT22;11973;52.098;7.582;2023-03-31T18:56:01;12.00;99.90
23591;DHT22;11973;52.098;7.582;2023-03-31T18:58:28;12.00;99.90
23591;DHT22;11973;52.098;7.582;2023-03-31T19:00:55;12.00;99.90
23591;DHT22;11973;52.098;7.582;2023-03-31T19:03:22;12.00;99.90
23591;DHT22;11973;52.098;7.582;2023-03-31T19:05:48;12.10;99.90
23591;DHT22;11973;52.098;7.582;2023-03-31T19:08:15;11.90;99.90
23591;DHT22;11973;52.098;7.582;2023-03-31T19:10:40;11.90;99.90
23591;DHT22;11973;52.098;7.582;2023-03-31T19:13:06;12.00;99.90
23591;DHT22;11973;52.098;7.582;2023-03-31T19:15:32;11.90;99.90
23591;DHT22;11973;52.098;7.582;2023-03-31T19:17:58;11.90;99.90
23591;DHT22;11973;52.098;7.582;2023-03-31T19:20:24;11.80;99.90
23591;DHT22;11973;52.098;7.582;2023-03-31T19:22:50;11.90;99.90
23591;DHT22;11973;52.098;7.582;2023-03-31T19:25:18;11.80;99.90
23591;DHT22;11973;52.098;7.582;2023-03-31T19:27:44;11.80;99.90
23591;DHT22;11973;52.098;7.582;2023-03-31T19:30:20;11.80;99.90
23591;DHT22;11973;52.098;7.582;2023-03-31T19:32:47;11.80;99.90
23591;DHT22;11973;52.098;7.582;2023-03-31T19:35:14;11.80;99.90
23591;DHT22;11973;52.098;7.582;2023-03-31T19:37:40;11.80;99.90
23591;DHT22;11973;52.098;7.582;2023-03-31T19:40:06;11.90;99.90
23591;DHT22;11973;52.098;7.582;2023-03-31T19:42:33;11.70;99.90
23591;DHT22;11973;52.098;7.582;2023-03-31T19:44:59;11.80;99.90
23591;DHT22;11973;52.098;7.582;2023-03-31T19:47:25;11.70;99.90
23591;DHT22;11973;52.098;7.582;2023-03-31T19:49:51;11.70;99.90
23591;DHT22;11973;52.098;7.582;2023-03-31T19:52:17;11.70;99.90
23591;DHT22;11973;52.098;7.582;2023-03-31T19:54:42;11.60;99.90
23591;DHT22;11973;52.098;7.582;2023-03-31T19:57:09;11.70;99.90
23591;DHT22;11973;52.098;7.582;2023-03-31T19:59:35;11.70;99.90
23591;DHT22;11973;52.098;7.582;2023-03-31T20:02:01;11.60;99.90
23591;DHT22;11973;52.098;7.582;2023-03-31T20:04:31;11.60;99.90
23591;DHT22;11973;52.098;7.582;2023-03-31T20:06:57;11.60;99.90
23591;DHT22;11973;52.098;7.582;2023-03-31T20:09:23;11.60;99.90
23591;DHT22;11973;52.098;7.582;2023-03-31T20:11:50;11.60;99.90
23591;DHT22;11973;52.098;7.582;2023-03-31T20:14:18;11.60;99.90
23591;DHT22;11973;52.098;7.582;2023-03-31T20:16:44;11.50;99.90
23591;DHT22;11973;52.098;7.582;2023-03-31T20:19:12;11.50;99.90
23591;DHT22;11973;52.098;7.582;2023-03-31T20:21:40;11.50;99.90
23591;DHT22;11973;52.098;7.582;2023-03-31T20:24:08;11.50;99.90
23591;DHT22;11973;52.098;7.582;2023-03-31T20:26:35;11.50;99.90
23591;DHT22;11973;52.098;7.582;2023-03-31T20:29:01;11.50;99.90
23591;DHT22;11973;52.098;7.582;2023-03-31T20:31:30;11.50;99.90
23591;DHT22;11973;52.098;7.582;2023-03-31T20:33:57;11.50;99.90
23591;DHT22;11973;52.098;7.582;2023-03-31T20:36:25;11.50;99.90
23591;DHT22;11973;52.098;7.582;2023-03-31T20:38:53;11.50;99.90
23591;DHT22;11973;52.098;7.582;2023-03-31T20:41:21;11.50;99.90
23591;DHT22;11973;52.098;7.582;2023-03-31T20:43:47;11.50;99.90
23591;DHT22;11973;52.098;7.582;2023-03-31T20:46:13;11.50;99.90
23591;DHT22;11973;52.098;7.582;2023-03-31T20:48:42;11.50;99.90
23591;DHT22;11973;52.098;7.582;2023-03-31T20:51:10;11.50;99.90
23591;DHT22;11973;52.098;7.582;2023-03-31T20:53:37;11.40;99.90
23591;DHT22;11973;52.098;7.582;2023-03-31T20:56:10;11.60;99.90
23591;DHT22;11973;52.098;7.582;2023-03-31T20:58:36;11.60;99.90
23591;DHT22;11973;52.098;7.582;2023-03-31T21:01:03;11.60;99.90
23591;DHT22;11973;52.098;7.582;2023-03-31T21:03:29;11.40;99.90
23591;DHT22;11973;52.098;7.582;2023-03-31T21:05:55;11.40;99.90
23591;DHT22;11973;52.098;7.582;2023-03-31T21:08:21;11.40;99.90
23591;DHT22;11973;52.098;7.582;2023-03-31T21:10:46;11.40;99.90
23591;DHT22;11973;52.098;7.582;2023-03-31T21:13:14;11.40;99.90
23591;DHT22;11973;52.098;7.582;2023-03-31T21:15:45;11.30;99.90
23591;DHT22;11973;52.098;7.582;2023-03-31T21:18:11;11.30;99.90
23591;DHT22;11973;52.098;7.582;2023-03-31T21:20:37;11.30;99.90
23591;DHT22;11973;52.098;7.582;2023-03-31T21:23:03;11.30;99.90
23591;DHT22;11973;52.098;7.582;2023-03-31T21:25:30;11.30;99.90
23591;DHT22;11973;52.098;7.582;2023-03-31T21:27:56;11.40;99.90
23591;DHT22;11973;52.098;7.582;2023-03-31T21:30:22;11.30;99.90
23591;DHT22;11973;52.098;7.582;2023-03-31T21:32:48;11.30;99.90
23591;DHT22;11973;52.098;7.582;2023-03-31T21:35:14;11.20;99.90
23591;DHT22;11973;52.098;7.582;2023-03-31T21:37:39;11.20;99.90
23591;DHT22;11973;52.098;7.582;2023-03-31T21:40:06;11.20;99.90
23591;DHT22;11973;52.098;7.582;2023-03-31T21:42:33;11.20;99.90
23591;DHT22;11973;52.098;7.582;2023-03-31T21:44:59;11.20;99.90
23591;DHT22;11973;52.098;7.582;2023-03-31T21:47:25;11.10;99.90